Terminal Aerodrome Forecast
Issued by NWS Charleston, WV

Current Version | Previous Version | Graphics & Text | Print | Product List | Glossary On
Versions: 1 2 3 4 5 6 7 8 9 10 11 12 13 14 15 16 17 18 19 20 21 22 23
793
FTUS41 KRLX 262348
TAFBKW
TAF
KBKW 262348Z 2700/2724 36004KT P6SM VCTS SCT015 BKN040CB
      TEMPO 2700/2702 -SHRA BKN015
     FM270400 00000KT P6SM BKN070
     FM270900 00000KT 5SM BR BKN070
     FM271300 VRB03KT 6SM BR BKN060
     FM271400 VRB03KT P6SM BKN050=

USA.gov is the U.S. government's official web portal to all federal, state and local government web resources and services.